Time;durP1;ratioP1;P1;durP2;ratioP2;P2;SDS_P1;SDS_P2;PMS_P1;PMS_P2;Temp;Humidity;BMP_temperature;BMP_pressure;BME280_temperature;BME280_humidity;BME280_pressure;Samples;Min_cycle;Max_cycle;Signal;HPM_P1;HPM_P2
2021/09/10 00:01:45;;;;;;;10.30;7.55;;;20.10;96.60;;;;;;4976115;28;20307;-87
2021/09/10 00:04:11;;;;;;;13.15;7.82;;;20.10;96.60;;;;;;5004879;28;20042;-87
2021/09/10 00:06:36;;;;;;;9.90;6.93;;;20.10;96.60;;;;;;4982904;28;20679;-87
2021/09/10 00:09:02;;;;;;;9.13;7.22;;;20.10;96.70;;;;;;4983624;28;20133;-88
2021/09/10 00:11:27;;;;;;;9.32;7.30;;;20.10;96.70;;;;;;4997217;28;20034;-87
2021/09/10 00:13:53;;;;;;;8.90;7.32;;;20.10;96.80;;;;;;5015872;28;20042;-87
2021/09/10 00:16:18;;;;;;;13.13;6.97;;;20.10;96.80;;;;;;5015568;28;20034;-87
2021/09/10 00:18:44;;;;;;;11.75;6.90;;;20.10;96.80;;;;;;4999845;28;20041;-87
2021/09/10 00:21:09;;;;;;;9.73;7.30;;;20.10;96.90;;;;;;5021591;28;20070;-88
2021/09/10 00:23:35;;;;;;;9.02;6.57;;;20.10;96.90;;;;;;4990218;28;20053;-87
2021/09/10 00:26:00;;;;;;;9.65;7.28;;;20.00;96.90;;;;;;4999380;28;20046;-87
2021/09/10 00:28:26;;;;;;;8.90;6.40;;;20.00;96.90;;;;;;5000229;28;20109;-88
2021/09/10 00:30:52;;;;;;;11.48;6.60;;;20.00;96.90;;;;;;4981753;28;20061;-89
2021/09/10 00:33:18;;;;;;;8.50;7.25;;;20.00;97.00;;;;;;4998600;28;20038;-87
2021/09/10 00:35:43;;;;;;;9.60;7.65;;;20.00;97.00;;;;;;5014608;28;20112;-88
2021/09/10 00:38:09;;;;;;;10.32;6.93;;;20.00;97.00;;;;;;5013511;28;20046;-87
2021/09/10 00:40:34;;;;;;;10.45;7.15;;;20.00;97.00;;;;;;4981981;28;20430;-86
2021/09/10 00:43:00;;;;;;;13.88;7.43;;;20.00;97.10;;;;;;4999529;28;20149;-87
2021/09/10 00:45:25;;;;;;;10.30;7.72;;;20.00;97.10;;;;;;4981700;28;20057;-87
2021/09/10 00:47:51;;;;;;;11.38;8.07;;;20.00;97.10;;;;;;4981892;28;20038;-88
2021/09/10 00:50:17;;;;;;;11.02;7.90;;;20.00;97.10;;;;;;4997047;28;20073;-87
2021/09/10 00:52:43;;;;;;;13.18;9.13;;;20.00;97.30;;;;;;4998344;28;20120;-86
2021/09/10 00:55:09;;;;;;;11.57;7.72;;;20.00;97.40;;;;;;4998791;28;20038;-86
2021/09/10 00:57:35;;;;;;;8.88;7.30;;;20.00;97.40;;;;;;4991678;28;20066;-85
2021/09/10 01:00:00;;;;;;;9.98;7.40;;;20.00;97.40;;;;;;5006675;28;20299;-87
2021/09/10 01:02:26;;;;;;;10.98;7.50;;;20.00;97.30;;;;;;4998768;28;20038;-87
2021/09/10 01:04:52;;;;;;;11.07;8.73;;;20.00;97.30;;;;;;4998574;28;20034;-87
2021/09/10 01:07:17;;;;;;;10.18;7.78;;;20.10;97.20;;;;;;5013583;28;20049;-85
2021/09/10 01:09:45;;;;;;;10.68;8.93;;;20.10;97.30;;;;;;5002264;28;20128;-87
2021/09/10 01:12:10;;;;;;;10.55;7.20;;;20.10;97.30;;;;;;4997495;28;20715;-87
2021/09/10 01:14:36;;;;;;;10.65;7.88;;;20.10;97.30;;;;;;4997447;28;20039;-87
2021/09/10 01:17:03;;;;;;;9.85;7.65;;;20.10;97.30;;;;;;4983095;28;20041;-85
2021/09/10 01:19:30;;;;;;;10.40;8.23;;;20.10;97.30;;;;;;5000680;28;20095;-86
2021/09/10 01:21:58;;;;;;;10.30;7.68;;;20.10;97.40;;;;;;5000192;28;20337;-85
2021/09/10 01:25:04;;;;;;;8.70;7.00;;;20.10;97.50;;;;;;4982262;28;20395;-85
2021/09/10 01:27:30;;;;;;;9.07;7.57;;;20.10;97.40;;;;;;4974522;28;20123;-86
2021/09/10 01:29:58;;;;;;;13.32;8.35;;;20.00;97.50;;;;;;4981855;28;20501;-86
2021/09/10 01:32:24;;;;;;;10.02;8.32;;;20.00;97.50;;;;;;4981086;28;20141;-87
2021/09/10 01:34:49;;;;;;;10.68;8.10;;;20.00;97.50;;;;;;5005412;28;20600;-88
2021/09/10 01:37:15;;;;;;;11.57;7.40;;;20.00;97.50;;;;;;5016396;28;20161;-88
2021/09/10 01:39:41;;;;;;;8.95;7.93;;;20.00;97.50;;;;;;4983155;28;20336;-87
2021/09/10 01:42:06;;;;;;;9.73;8.73;;;20.00;97.50;;;;;;4999550;28;20049;-88
2021/09/10 01:44:32;;;;;;;10.15;7.68;;;20.00;97.60;;;;;;4997510;28;20085;-86
2021/09/10 01:46:57;;;;;;;10.30;8.32;;;20.00;97.60;;;;;;4998211;28;20457;-87
2021/09/10 01:49:23;;;;;;;10.57;8.23;;;20.00;97.70;;;;;;4997657;28;20035;-87
2021/09/10 01:51:48;;;;;;;11.23;9.10;;;20.00;97.70;;;;;;5012959;28;20121;-87
2021/09/10 01:54:14;;;;;;;10.15;8.55;;;20.00;97.60;;;;;;4997618;28;20047;-88
2021/09/10 01:56:39;;;;;;;9.68;8.00;;;20.00;97.60;;;;;;4980788;28;20034;-87
2021/09/10 01:59:05;;;;;;;8.55;7.63;;;20.00;97.70;;;;;;4980802;28;20046;-86
2021/09/10 02:01:31;;;;;;;10.07;8.52;;;20.00;97.70;;;;;;4985256;28;20398;-90
2021/09/10 02:03:57;;;;;;;10.20;8.85;;;19.90;97.70;;;;;;5010937;28;20034;-88
2021/09/10 02:06:23;;;;;;;14.52;9.52;;;19.90;97.70;;;;;;4996557;28;20073;-88
2021/09/10 02:08:49;;;;;;;11.13;7.40;;;19.90;97.90;;;;;;5000658;28;20042;-88
2021/09/10 02:11:14;;;;;;;11.20;9.23;;;19.90;97.90;;;;;;4979313;28;20049;-91
2021/09/10 02:13:41;;;;;;;10.50;8.80;;;19.90;98.20;;;;;;4999525;28;21619;-87
2021/09/10 02:16:07;;;;;;;10.50;8.63;;;19.80;98.30;;;;;;4998175;28;20060;-88
2021/09/10 02:18:33;;;;;;;11.65;8.27;;;19.80;98.20;;;;;;4999500;28;20026;-89
2021/09/10 02:20:58;;;;;;;12.13;8.80;;;19.80;98.20;;;;;;4998775;28;20109;-87
2021/09/10 02:23:24;;;;;;;10.88;8.50;;;19.80;98.20;;;;;;4981332;28;20050;-88
2021/09/10 02:25:49;;;;;;;12.57;9.18;;;19.80;98.30;;;;;;4980981;28;20105;-88
2021/09/10 02:28:15;;;;;;;12.90;10.18;;;19.80;98.30;;;;;;4996219;28;20050;-89
2021/09/10 02:30:40;;;;;;;14.65;9.38;;;19.80;98.40;;;;;;4980861;28;20058;-88
2021/09/10 02:33:06;;;;;;;10.10;8.32;;;19.80;98.40;;;;;;4980573;28;20042;-89
2021/09/10 02:35:31;;;;;;;12.88;8.95;;;19.80;98.50;;;;;;5012444;28;20035;-89
2021/09/10 02:37:57;;;;;;;10.45;9.00;;;19.80;98.50;;;;;;5006848;28;20130;-88
2021/09/10 02:40:23;;;;;;;10.63;8.85;;;19.70;98.60;;;;;;5002850;28;20077;-88
2021/09/10 02:42:49;;;;;;;10.43;9.32;;;19.70;98.60;;;;;;5013285;28;20357;-87
2021/09/10 02:45:14;;;;;;;9.85;8.77;;;19.80;98.70;;;;;;5012113;28;20113;-86
2021/09/10 02:47:40;;;;;;;13.93;8.73;;;19.70;98.70;;;;;;4997758;28;20049;-88
2021/09/10 02:50:07;;;;;;;12.23;9.13;;;19.70;98.70;;;;;;4995490;28;20046;-87
2021/09/10 02:52:36;;;;;;;11.43;8.70;;;19.70;98.80;;;;;;4978865;28;20038;-88
2021/09/10 02:55:07;;;;;;;10.10;9.07;;;19.70;98.80;;;;;;5012500;28;20042;-89
2021/09/10 02:57:33;;;;;;;10.45;9.25;;;19.60;98.80;;;;;;4996574;28;20565;-89
2021/09/10 02:59:59;;;;;;;9.82;8.80;;;19.60;98.90;;;;;;4982877;28;20053;-86
2021/09/10 03:02:25;;;;;;;14.02;9.48;;;19.60;98.90;;;;;;4996251;28;20046;-88
2021/09/10 03:04:50;;;;;;;10.60;9.35;;;19.60;98.90;;;;;;4980162;28;20042;-87
2021/09/10 03:07:16;;;;;;;10.60;9.07;;;19.60;99.00;;;;;;5016402;28;20101;-88
2021/09/10 03:09:42;;;;;;;11.52;9.23;;;19.50;99.10;;;;;;4996544;28;20044;-88
2021/09/10 03:12:08;;;;;;;13.95;9.75;;;19.50;99.20;;;;;;4980561;28;20141;-88
2021/09/10 03:14:33;;;;;;;11.43;9.27;;;19.50;99.30;;;;;;5010437;28;20034;-88
2021/09/10 03:16:59;;;;;;;13.63;9.13;;;19.50;99.30;;;;;;4983023;28;20039;-88
2021/09/10 03:19:25;;;;;;;12.93;10.55;;;19.50;99.30;;;;;;4997359;28;20135;-87
2021/09/10 03:21:51;;;;;;;10.77;8.93;;;19.50;99.40;;;;;;4995282;28;20046;-87
2021/09/10 03:24:17;;;;;;;13.43;10.38;;;19.50;99.40;;;;;;4997148;28;20311;-86
2021/09/10 03:26:43;;;;;;;13.35;10.23;;;19.50;99.40;;;;;;4983236;28;20053;-87
2021/09/10 03:29:09;;;;;;;11.77;9.73;;;19.50;99.30;;;;;;4979428;28;20136;-88
2021/09/10 03:31:34;;;;;;;14.40;9.95;;;19.50;99.40;;;;;;4978733;28;20560;-88
2021/09/10 03:34:00;;;;;;;12.10;9.18;;;19.50;99.40;;;;;;5003130;28;20034;-88
2021/09/10 03:36:25;;;;;;;12.10;10.32;;;19.50;99.50;;;;;;5016852;28;20042;-88
2021/09/10 03:38:51;;;;;;;12.75;9.73;;;19.50;99.40;;;;;;5013333;28;20104;-88
2021/09/10 03:41:16;;;;;;;12.35;9.82;;;19.50;99.40;;;;;;4995270;28;20314;-88
2021/09/10 03:43:42;;;;;;;12.05;9.35;;;19.50;99.40;;;;;;4980023;28;20481;-89
2021/09/10 03:46:09;;;;;;;10.85;9.57;;;19.50;99.40;;;;;;4997495;28;20038;-88
2021/09/10 03:48:34;;;;;;;10.95;8.55;;;19.50;99.50;;;;;;4980690;28;20034;-88
2021/09/10 03:51:00;;;;;;;14.45;9.32;;;19.50;99.40;;;;;;4995653;28;20076;-87
2021/09/10 03:53:25;;;;;;;11.93;9.70;;;19.50;99.40;;;;;;4996042;28;20045;-88
2021/09/10 03:55:51;;;;;;;11.25;9.57;;;19.50;99.40;;;;;;4979339;28;20484;-89
2021/09/10 03:58:16;;;;;;;11.05;9.32;;;19.50;99.40;;;;;;4996667;28;20034;-89
2021/09/10 04:00:42;;;;;;;9.10;8.07;;;19.50;99.40;;;;;;4980610;28;20081;-89
2021/09/10 04:03:07;;;;;;;11.52;9.68;;;19.50;99.40;;;;;;5013899;28;20634;-87
2021/09/10 04:05:33;;;;;;;11.82;10.55;;;19.40;99.50;;;;;;5012185;28;20121;-87
2021/09/10 04:07:58;;;;;;;13.73;10.57;;;19.40;99.60;;;;;;4980954;28;20042;-88
2021/09/10 04:10:24;;;;;;;13.13;10.75;;;19.40;99.70;;;;;;4979204;28;20098;-88
2021/09/10 04:12:49;;;;;;;13.73;9.73;;;19.40;99.80;;;;;;5004186;28;20049;-87
2021/09/10 04:15:15;;;;;;;11.15;9.52;;;19.40;99.90;;;;;;4978194;28;20149;-87
2021/09/10 04:17:40;;;;;;;13.57;10.10;;;19.40;99.90;;;;;;4996000;28;20034;-87
2021/09/10 04:20:06;;;;;;;12.77;10.13;;;19.30;99.90;;;;;;4978465;28;20433;-87
2021/09/10 04:22:32;;;;;;;14.07;10.13;;;19.30;99.90;;;;;;4979191;28;20050;-87
2021/09/10 04:24:57;;;;;;;16.73;10.90;;;19.30;99.90;;;;;;4994803;28;20038;-88
2021/09/10 04:27:23;;;;;;;12.80;10.73;;;19.30;99.90;;;;;;4982239;28;20070;-86
2021/09/10 04:29:48;;;;;;;13.80;10.40;;;19.30;99.90;;;;;;5029849;28;20049;-87
2021/09/10 04:32:14;;;;;;;12.50;10.57;;;19.30;99.90;;;;;;5006979;28;20042;-87
2021/09/10 04:34:39;;;;;;;16.25;10.55;;;19.30;99.90;;;;;;4982814;28;20034;-87
2021/09/10 04:37:08;;;;;;;14.55;10.50;;;19.30;99.90;;;;;;5016794;28;20265;-88
2021/09/10 04:39:33;;;;;;;12.50;10.88;;;19.30;99.90;;;;;;4988272;28;20042;-87
2021/09/10 04:41:59;;;;;;;13.13;11.23;;;19.30;99.90;;;;;;5005583;28;20127;-87
2021/09/10 04:44:31;;;;;;;13.30;11.07;;;19.30;99.90;;;;;;5000413;28;20038;-87
2021/09/10 04:46:56;;;;;;;11.77;10.30;;;19.30;99.90;;;;;;5005382;28;20141;-87
2021/09/10 04:49:21;;;;;;;12.35;10.63;;;19.30;99.90;;;;;;4986015;28;20088;-88
2021/09/10 04:51:47;;;;;;;14.25;11.07;;;19.30;99.90;;;;;;4997827;28;20077;-88
2021/09/10 04:54:15;;;;;;;13.60;11.00;;;19.30;99.90;;;;;;5014193;28;20045;-90
2021/09/10 04:56:42;;;;;;;13.38;10.70;;;19.30;99.90;;;;;;4980572;28;20034;-87
2021/09/10 04:59:07;;;;;;;12.70;9.95;;;19.30;99.90;;;;;;4999197;28;20045;-87
2021/09/10 05:01:33;;;;;;;12.52;11.23;;;19.30;99.90;;;;;;5014610;28;20034;-87
2021/09/10 05:03:59;;;;;;;19.95;10.98;;;19.30;99.90;;;;;;4981017;28;20052;-88
2021/09/10 05:06:25;;;;;;;14.90;10.85;;;19.30;99.90;;;;;;4980809;28;20489;-88
2021/09/10 05:08:51;;;;;;;11.68;10.20;;;19.30;99.90;;;;;;4981232;28;20046;-88
2021/09/10 05:11:16;;;;;;;12.68;10.98;;;19.40;99.90;;;;;;4980800;28;20060;-88
2021/09/10 05:13:42;;;;;;;14.23;11.18;;;19.40;99.90;;;;;;4981027;28;20034;-88
2021/09/10 05:16:07;;;;;;;15.38;11.02;;;19.40;99.90;;;;;;4998030;28;20053;-87
2021/09/10 05:18:34;;;;;;;13.95;11.18;;;19.40;99.90;;;;;;4981407;28;20045;-89
2021/09/10 05:20:59;;;;;;;16.35;10.55;;;19.50;99.90;;;;;;4982107;28;20042;-87
2021/09/10 05:23:25;;;;;;;14.30;11.70;;;19.50;99.90;;;;;;4989956;28;20050;-88
2021/09/10 05:26:26;;;;;;;14.48;10.40;;;19.50;99.90;;;;;;4989043;28;20503;-95
2021/09/10 05:28:51;;;;;;;14.55;9.98;;;19.50;99.90;;;;;;4991590;28;20038;-86
2021/09/10 05:31:17;;;;;;;11.07;9.52;;;19.50;99.90;;;;;;4997371;28;20057;-89
2021/09/10 05:33:42;;;;;;;14.20;10.63;;;19.60;99.90;;;;;;5014630;28;20030;-88
2021/09/10 05:36:08;;;;;;;14.23;10.52;;;19.70;99.90;;;;;;4986720;28;20406;-90
2021/09/10 05:38:33;;;;;;;12.73;10.70;;;19.70;99.90;;;;;;5019634;28;20073;-89
2021/09/10 05:40:59;;;;;;;11.60;9.95;;;19.80;99.90;;;;;;4982005;28;20070;-89
2021/09/10 05:43:25;;;;;;;13.13;10.57;;;19.90;99.90;;;;;;4998930;28;20273;-89
2021/09/10 05:45:51;;;;;;;12.88;9.15;;;20.00;99.90;;;;;;4999204;28;20042;-89
2021/09/10 05:48:19;;;;;;;13.73;9.80;;;20.10;99.90;;;;;;4999175;28;20685;-89
2021/09/10 05:50:46;;;;;;;13.05;8.77;;;20.20;99.80;;;;;;4998464;28;20061;-89
2021/09/10 05:53:12;;;;;;;10.18;8.60;;;20.30;99.60;;;;;;4998430;28;20046;-88
2021/09/10 05:55:37;;;;;;;15.85;9.48;;;20.30;99.50;;;;;;5000112;28;20042;-89
2021/09/10 05:58:03;;;;;;;14.82;9.55;;;20.30;99.40;;;;;;4999449;28;20038;-89
2021/09/10 06:00:28;;;;;;;10.85;8.23;;;20.40;99.40;;;;;;4981837;28;20648;-89
2021/09/10 06:02:54;;;;;;;11.20;9.02;;;20.40;99.30;;;;;;4998685;28;20414;-90
2021/09/10 06:05:19;;;;;;;12.07;9.23;;;20.50;99.20;;;;;;4982114;28;20061;-89
2021/09/10 06:07:45;;;;;;;12.40;9.55;;;20.50;99.20;;;;;;4982272;28;20073;-90
2021/09/10 06:10:13;;;;;;;12.75;10.10;;;20.50;99.00;;;;;;4984909;28;20277;-88
2021/09/10 06:12:41;;;;;;;16.13;9.18;;;20.50;99.10;;;;;;4987582;28;20065;-89
2021/09/10 06:15:07;;;;;;;11.85;8.35;;;20.60;99.10;;;;;;4998232;28;20058;-88
2021/09/10 06:17:33;;;;;;;11.48;9.18;;;20.70;99.00;;;;;;5014120;28;20470;-90
2021/09/10 06:19:58;;;;;;;11.32;8.88;;;20.70;99.00;;;;;;5013987;28;20081;-88
2021/09/10 06:22:27;;;;;;;13.82;9.07;;;20.80;98.80;;;;;;5013549;28;20096;-89
2021/09/10 06:24:54;;;;;;;11.73;8.85;;;20.80;98.80;;;;;;4981446;28;20038;-88
2021/09/10 06:27:19;;;;;;;16.50;9.43;;;20.90;98.70;;;;;;4999352;28;20042;-91
2021/09/10 06:29:45;;;;;;;11.00;8.63;;;20.90;98.60;;;;;;4994004;28;20035;-90
2021/09/10 06:32:10;;;;;;;11.10;8.23;;;21.00;98.60;;;;;;4997859;28;20069;-89
2021/09/10 06:34:35;;;;;;;12.23;8.82;;;21.00;98.50;;;;;;5013636;28;20038;-91
2021/09/10 06:37:01;;;;;;;10.77;9.18;;;21.10;98.30;;;;;;5018538;28;20070;-90
2021/09/10 06:39:26;;;;;;;10.07;8.05;;;21.10;98.20;;;;;;5007913;28;20034;-90
2021/09/10 06:41:52;;;;;;;9.85;8.00;;;21.20;98.20;;;;;;4996337;28;20113;-89
2021/09/10 06:44:17;;;;;;;11.30;8.43;;;21.30;98.20;;;;;;4998226;28;20031;-87
2021/09/10 06:46:43;;;;;;;13.43;8.35;;;21.30;98.10;;;;;;5005001;28;20045;-88
2021/09/10 06:49:09;;;;;;;15.63;8.30;;;21.40;98.10;;;;;;5014175;28;20042;-87
2021/09/10 06:51:34;;;;;;;15.82;7.28;;;21.40;97.90;;;;;;4996589;28;20038;-89
2021/09/10 06:54:00;;;;;;;8.68;7.20;;;21.50;97.90;;;;;;4996844;28;20034;-88
2021/09/10 06:56:25;;;;;;;13.73;8.93;;;21.50;97.80;;;;;;4979977;28;20080;-89
2021/09/10 06:58:51;;;;;;;11.20;7.60;;;21.50;97.80;;;;;;4979784;28;20092;-90
2021/09/10 07:01:17;;;;;;;10.60;7.15;;;21.60;97.80;;;;;;4979982;28;20066;-87
2021/09/10 07:03:42;;;;;;;8.45;7.55;;;21.60;97.70;;;;;;4978829;28;20038;-87
2021/09/10 07:06:10;;;;;;;12.80;7.65;;;21.70;97.80;;;;;;4998217;28;20046;-89
2021/09/10 07:08:35;;;;;;;9.48;7.38;;;21.80;97.60;;;;;;4980743;28;20054;-90
2021/09/10 07:11:03;;;;;;;10.80;7.55;;;21.80;97.50;;;;;;4979594;28;20444;-88
2021/09/10 07:13:29;;;;;;;10.07;7.20;;;21.90;97.50;;;;;;4995742;28;20034;-87
2021/09/10 07:15:54;;;;;;;11.52;7.00;;;21.90;97.40;;;;;;4996898;28;20038;-89
2021/09/10 07:18:20;;;;;;;8.23;7.05;;;22.00;97.20;;;;;;4980040;28;20127;-88
2021/09/10 07:20:46;;;;;;;12.00;7.05;;;22.00;97.30;;;;;;4997501;28;20078;-88
2021/09/10 07:23:12;;;;;;;9.77;7.00;;;22.10;97.10;;;;;;5004376;28;20096;-89
2021/09/10 07:25:38;;;;;;;9.52;6.38;;;22.20;97.20;;;;;;4997621;28;20046;-89
2021/09/10 07:28:04;;;;;;;9.50;6.38;;;22.20;96.70;;;;;;4997887;28;20050;-87
2021/09/10 07:30:29;;;;;;;7.97;6.63;;;22.30;96.50;;;;;;5015372;28;20133;-87
2021/09/10 07:32:55;;;;;;;8.20;6.35;;;22.40;96.70;;;;;;5021341;28;20066;-87
2021/09/10 07:35:21;;;;;;;9.25;6.38;;;22.50;96.70;;;;;;4997233;28;20203;-90
2021/09/10 07:37:48;;;;;;;7.85;6.47;;;22.60;96.40;;;;;;5003468;28;20496;-88
2021/09/10 07:40:14;;;;;;;10.80;6.78;;;22.70;96.10;;;;;;4996208;28;20394;-87
2021/09/10 07:42:40;;;;;;;7.93;6.05;;;22.80;96.00;;;;;;4986292;28;20046;-89
2021/09/10 07:45:07;;;;;;;7.97;5.93;;;22.90;95.90;;;;;;4988007;28;20081;-89
2021/09/10 07:47:33;;;;;;;10.70;6.10;;;23.00;95.80;;;;;;4996808;28;20066;-90
2021/09/10 07:49:58;;;;;;;9.35;6.45;;;23.10;95.30;;;;;;4978842;28;20316;-88
2021/09/10 07:52:24;;;;;;;7.82;6.05;;;23.20;95.30;;;;;;4981312;28;20026;-89
2021/09/10 07:54:49;;;;;;;12.50;6.07;;;23.20;95.30;;;;;;4994814;28;20046;-88
2021/09/10 07:57:14;;;;;;;10.75;7.03;;;23.30;95.20;;;;;;5014233;28;20042;-88
2021/09/10 07:59:40;;;;;;;7.35;6.28;;;23.40;95.00;;;;;;5003222;28;20559;-88
2021/09/10 08:02:06;;;;;;;11.38;6.22;;;23.50;95.20;;;;;;4980767;28;20113;-88
2021/09/10 08:04:31;;;;;;;6.40;5.72;;;23.50;94.80;;;;;;4980992;28;20038;-89
2021/09/10 08:06:57;;;;;;;10.40;6.00;;;23.60;95.20;;;;;;5014892;28;20401;-87
2021/09/10 08:09:22;;;;;;;11.40;6.45;;;23.70;95.00;;;;;;5015115;28;20049;-87
2021/09/10 08:11:48;;;;;;;7.72;5.72;;;23.80;94.80;;;;;;4982014;28;20034;-89
2021/09/10 08:14:13;;;;;;;7.00;5.80;;;23.80;94.70;;;;;;4998292;28;20051;-88
2021/09/10 08:16:39;;;;;;;7.00;6.00;;;24.00;94.70;;;;;;4983040;28;20069;-89
2021/09/10 08:19:05;;;;;;;10.73;5.95;;;24.00;94.40;;;;;;5015140;28;20487;-89
2021/09/10 08:21:31;;;;;;;5.55;5.05;;;24.10;94.40;;;;;;4981816;28;20049;-89
2021/09/10 08:23:56;;;;;;;5.93;5.32;;;24.20;94.30;;;;;;4998689;28;20037;-89
2021/09/10 08:26:21;;;;;;;11.13;5.45;;;24.30;94.30;;;;;;5014186;28;20420;-89
2021/09/10 08:28:48;;;;;;;7.30;5.38;;;24.50;93.80;;;;;;5014022;28;20038;-89
2021/09/10 08:31:14;;;;;;;9.32;4.75;;;24.70;93.70;;;;;;4997983;28;20085;-88
2021/09/10 08:33:40;;;;;;;6.40;5.07;;;24.80;93.00;;;;;;5005860;28;20046;-88
2021/09/10 08:36:05;;;;;;;6.93;4.70;;;25.00;93.30;;;;;;5002052;28;20053;-89
2021/09/10 08:38:31;;;;;;;4.78;4.18;;;25.10;92.80;;;;;;4988523;28;20042;-88
2021/09/10 08:40:59;;;;;;;10.18;5.78;;;25.30;93.00;;;;;;4997051;28;20038;-87
2021/09/10 08:43:25;;;;;;;4.35;3.95;;;25.40;92.20;;;;;;4981036;28;20038;-88
2021/09/10 08:45:57;;;;;;;8.15;4.82;;;25.60;92.00;;;;;;4988662;28;20066;-89
2021/09/10 08:48:24;;;;;;;8.20;4.25;;;25.60;91.40;;;;;;4984201;28;20042;-88
2021/09/10 08:50:50;;;;;;;6.25;5.13;;;25.70;92.00;;;;;;4980957;28;20080;-88
2021/09/10 08:53:16;;;;;;;6.53;4.47;;;25.80;91.80;;;;;;5013713;28;20073;-88
2021/09/10 08:55:43;;;;;;;7.55;5.32;;;25.90;91.30;;;;;;5013727;28;20030;-88
2021/09/10 08:58:09;;;;;;;8.05;4.30;;;26.00;91.20;;;;;;5012746;28;20298;-88
2021/09/10 09:00:37;;;;;;;10.55;5.40;;;26.20;91.30;;;;;;4983073;28;20107;-87
2021/09/10 09:03:08;;;;;;;8.40;4.40;;;26.30;91.30;;;;;;4997438;28;20120;-87
2021/09/10 09:05:34;;;;;;;9.73;4.70;;;26.40;91.00;;;;;;4980056;28;20100;-87
2021/09/10 09:08:12;;;;;;;5.68;4.80;;;26.50;91.10;;;;;;4980633;28;20046;-89
2021/09/10 09:10:58;;;;;;;5.15;4.25;;;26.70;91.20;;;;;;5012153;28;20034;-87
2021/09/10 09:13:35;;;;;;;6.55;4.78;;;26.80;90.30;;;;;;4980074;28;20039;-88
2021/09/10 09:16:25;;;;;;;6.60;4.30;;;26.90;90.90;;;;;;4996606;28;20065;-88
2021/09/10 09:19:10;;;;;;;5.07;4.30;;;26.90;90.70;;;;;;4997911;28;20062;-88
2021/09/10 09:21:38;;;;;;;5.45;3.85;;;27.10;91.20;;;;;;5000801;28;20420;-87
2021/09/10 09:24:17;;;;;;;5.18;4.18;;;27.20;91.10;;;;;;4997176;28;20050;-88
2021/09/10 09:26:44;;;;;;;4.65;3.70;;;27.30;90.10;;;;;;4996665;28;20410;-87
2021/09/10 09:29:21;;;;;;;5.00;3.80;;;27.40;90.20;;;;;;4996238;28;20069;-87
2021/09/10 09:32:01;;;;;;;6.68;4.22;;;27.50;89.60;;;;;;4983532;28;20053;-87
2021/09/10 09:34:48;;;;;;;9.77;4.30;;;27.60;89.50;;;;;;5011148;28;20137;-87
2021/09/10 09:37:19;;;;;;;5.25;4.00;;;27.70;89.00;;;;;;4997022;28;20433;-87
2021/09/10 09:40:00;;;;;;;5.93;3.95;;;27.80;90.20;;;;;;4979412;28;20157;-87
2021/09/10 09:42:31;;;;;;;4.68;3.13;;;27.90;88.80;;;;;;4979822;28;20398;-87
2021/09/10 09:45:14;;;;;;;3.97;3.58;;;27.90;88.10;;;;;;4995762;28;20044;-87
2021/09/10 09:47:41;;;;;;;9.10;4.15;;;28.00;88.30;;;;;;4995928;28;20587;-87
2021/09/10 09:50:12;;;;;;;6.32;3.60;;;28.20;88.30;;;;;;4996092;28;20153;-87
2021/09/10 09:52:38;;;;;;;7.35;4.05;;;28.30;87.90;;;;;;4996242;28;20030;-87
2021/09/10 09:55:05;;;;;;;3.95;3.40;;;28.30;85.90;;;;;;4996010;28;20038;-88
2021/09/10 09:57:32;;;;;;;5.28;3.75;;;28.30;86.40;;;;;;4979187;28;20035;-88
2021/09/10 10:00:02;;;;;;;6.28;3.72;;;28.30;86.00;;;;;;4978556;28;20065;-90
2021/09/10 10:02:27;;;;;;;5.68;3.40;;;28.30;85.20;;;;;;4996166;28;20042;-88
2021/09/10 10:04:56;;;;;;;4.65;3.50;;;28.30;86.00;;;;;;4979386;28;20061;-87
2021/09/10 10:07:22;;;;;;;6.57;3.65;;;28.20;85.80;;;;;;4978915;28;20042;-89
2021/09/10 10:09:49;;;;;;;6.82;3.58;;;28.20;85.60;;;;;;4994338;28;20271;-88
2021/09/10 10:12:19;;;;;;;4.20;3.17;;;28.20;86.70;;;;;;4980809;28;20377;-87
2021/09/10 10:14:45;;;;;;;6.05;3.83;;;28.30;87.10;;;;;;5003245;28;20031;-86
2021/09/10 10:17:29;;;;;;;6.40;3.58;;;28.40;85.60;;;;;;4995827;28;20109;-86
2021/09/10 10:19:55;;;;;;;4.00;3.38;;;28.40;84.80;;;;;;4995307;28;20038;-87
2021/09/10 10:22:35;;;;;;;6.35;3.95;;;28.50;83.90;;;;;;5010745;28;20038;-88
2021/09/10 10:25:02;;;;;;;6.72;3.92;;;28.50;84.20;;;;;;4979249;28;20062;-87
2021/09/10 10:27:37;;;;;;;5.15;3.92;;;28.50;83.90;;;;;;4994397;28;20026;-86
2021/09/10 10:30:08;;;;;;;4.97;3.42;;;28.50;83.70;;;;;;4992716;28;20073;-87
2021/09/10 10:32:39;;;;;;;5.22;3.25;;;28.60;83.60;;;;;;5011193;28;20425;-86
2021/09/10 10:35:29;;;;;;;4.33;2.97;;;28.60;83.00;;;;;;5017873;28;20069;-88
2021/09/10 10:38:05;;;;;;;4.55;3.17;;;28.60;82.90;;;;;;4985704;28;20046;-86
2021/09/10 10:40:36;;;;;;;7.07;3.30;;;28.80;83.90;;;;;;4988560;28;20038;-87
2021/09/10 10:43:25;;;;;;;5.22;3.33;;;29.00;82.50;;;;;;5011366;28;20129;-87
2021/09/10 10:46:05;;;;;;;9.18;3.42;;;29.10;81.30;;;;;;5002858;28;20086;-87
2021/09/10 10:48:33;;;;;;;7.18;3.90;;;29.20;80.90;;;;;;4984711;28;20184;-85
2021/09/10 10:51:16;;;;;;;8.32;3.42;;;29.20;82.60;;;;;;5004634;28;20564;-87
2021/09/10 10:53:45;;;;;;;3.83;3.42;;;29.20;82.40;;;;;;4996658;28;20068;-87
2021/09/10 10:56:32;;;;;;;3.50;2.83;;;29.10;80.60;;;;;;4996342;28;20088;-86
2021/09/10 10:59:21;;;;;;;4.10;3.30;;;29.10;81.40;;;;;;4995043;28;20041;-88
2021/09/10 11:02:15;;;;;;;4.30;3.60;;;29.00;81.70;;;;;;4992928;28;20042;-88
2021/09/10 11:04:49;;;;;;;4.43;3.50;;;28.90;82.40;;;;;;4985462;28;20099;-90
2021/09/10 11:07:19;;;;;;;4.28;3.30;;;28.80;82.70;;;;;;4977955;28;20069;-88
2021/09/10 11:10:04;;;;;;;5.47;3.08;;;28.40;82.70;;;;;;4969080;28;20042;-87
2021/09/10 11:12:30;;;;;;;4.32;3.15;;;28.30;83.00;;;;;;4993787;28;20487;-86
2021/09/10 11:14:55;;;;;;;4.85;3.30;;;28.20;83.50;;;;;;4974339;28;20125;-86
2021/09/10 11:17:28;;;;;;;4.57;3.17;;;28.20;83.80;;;;;;4989742;28;20124;-85
2021/09/10 11:19:56;;;;;;;4.10;2.92;;;28.30;82.00;;;;;;4973601;28;20042;-86
2021/09/10 11:22:23;;;;;;;4.25;2.80;;;28.40;83.40;;;;;;4965543;28;20157;-88
2021/09/10 11:24:48;;;;;;;6.75;3.38;;;28.50;82.40;;;;;;4981535;28;20072;-88
2021/09/10 11:27:25;;;;;;;4.68;3.00;;;28.70;82.50;;;;;;5001794;28;20046;-88
2021/09/10 11:29:51;;;;;;;4.65;2.88;;;28.90;81.60;;;;;;4996994;28;20039;-88
2021/09/10 11:32:24;;;;;;;3.90;2.70;;;28.90;79.40;;;;;;5009560;28;20065;-87
2021/09/10 11:34:51;;;;;;;4.32;3.15;;;28.90;78.90;;;;;;4977994;28;20044;-87
2021/09/10 11:37:27;;;;;;;3.45;2.97;;;28.90;80.20;;;;;;4978861;28;20030;-86
2021/09/10 11:39:53;;;;;;;3.30;2.65;;;29.00;80.10;;;;;;4987599;28;20048;-88
2021/09/10 11:42:37;;;;;;;6.00;2.80;;;29.20;79.00;;;;;;4981416;28;20095;-89
2021/09/10 11:45:13;;;;;;;4.10;2.75;;;29.30;77.10;;;;;;4981659;28;20377;-88
2021/09/10 11:47:40;;;;;;;5.97;3.42;;;29.50;77.40;;;;;;4981979;28;20042;-88
2021/09/10 11:50:08;;;;;;;3.90;3.20;;;29.50;80.50;;;;;;4998171;28;20038;-88
2021/09/10 11:52:43;;;;;;;3.47;2.83;;;29.70;81.50;;;;;;4997402;28;20042;-87
2021/09/10 11:55:16;;;;;;;5.03;3.13;;;29.80;80.80;;;;;;4998359;28;20046;-88
2021/09/10 11:57:43;;;;;;;4.30;3.83;;;29.80;79.10;;;;;;4998350;28;20061;-89
2021/09/10 12:00:31;;;;;;;4.68;4.10;;;29.80;80.40;;;;;;4983676;28;20030;-89
2021/09/10 12:02:59;;;;;;;5.88;3.53;;;29.70;80.20;;;;;;4987340;28;20030;-87
2021/09/10 12:05:25;;;;;;;3.80;3.20;;;29.50;81.40;;;;;;4998454;28;20034;-87
2021/09/10 12:07:53;;;;;;;5.93;4.07;;;29.50;81.50;;;;;;4997968;28;20042;-87
2021/09/10 12:10:33;;;;;;;8.80;3.80;;;29.40;81.00;;;;;;4981522;28;20042;-88
2021/09/10 12:13:08;;;;;;;7.47;3.90;;;29.40;80.40;;;;;;4998505;28;20038;-87
2021/09/10 12:15:34;;;;;;;3.85;3.35;;;29.30;81.80;;;;;;4998087;28;20623;-87
2021/09/10 12:18:14;;;;;;;5.18;4.03;;;29.20;80.80;;;;;;4981214;28;20043;-87
2021/09/10 12:20:41;;;;;;;5.57;4.43;;;29.10;81.00;;;;;;4997494;28;20622;-87
2021/09/10 12:23:08;;;;;;;4.72;3.80;;;29.10;81.10;;;;;;4997637;28;20386;-87
2021/09/10 12:25:40;;;;;;;7.03;3.40;;;29.10;81.10;;;;;;4980450;28;20127;-88
2021/09/10 12:28:09;;;;;;;4.22;2.95;;;29.20;82.40;;;;;;4998231;28;20042;-88
2021/09/10 12:30:56;;;;;;;6.50;3.22;;;29.20;81.90;;;;;;4997606;28;20049;-87
2021/09/10 12:33:24;;;;;;;4.18;2.95;;;29.20;81.00;;;;;;4980366;28;20100;-87
2021/09/10 12:36:08;;;;;;;4.82;3.15;;;29.20;80.80;;;;;;4997830;28;20323;-87
2021/09/10 12:38:44;;;;;;;4.78;2.75;;;29.20;78.60;;;;;;4987940;28;20038;-88
2021/09/10 12:41:11;;;;;;;4.38;3.28;;;29.10;79.50;;;;;;4981076;28;20042;-87
2021/09/10 12:43:38;;;;;;;4.82;3.00;;;29.10;79.50;;;;;;4996764;28;20035;-87
2021/09/10 12:46:04;;;;;;;4.53;3.10;;;29.30;77.60;;;;;;4997307;28;20070;-88